Time;durP1;ratioP1;P1;durP2;ratioP2;P2;SDS_P1;SDS_P2;PMS_P1;PMS_P2;Temp;Humidity;BMP_temperature;BMP_pressure;BME280_temperature;BME280_humidity;BME280_pressure;Samples;Min_cycle;Max_cycle;Signal;HPM_P1;HPM_P2
2022/06/24 00:00:43;;;;;;;8.52;4.90;;;;;;;;;;5087204;28;20047;-59
2022/06/24 00:03:19;;;;;;;7.13;4.70;;;;;;;;;;5089372;28;20040;-59
2022/06/24 00:05:48;;;;;;;6.07;4.60;;;;;;;;;;5079994;28;20111;-58
2022/06/24 00:08:13;;;;;;;6.75;4.78;;;;;;;;;;5086394;28;20047;-58
2022/06/24 00:10:39;;;;;;;5.53;4.60;;;;;;;;;;5088394;28;20024;-58
2022/06/24 00:13:06;;;;;;;8.75;4.75;;;;;;;;;;5084831;28;20032;-57
2022/06/24 00:15:34;;;;;;;10.95;5.07;;;;;;;;;;5089129;28;20031;-59
2022/06/24 00:18:17;;;;;;;6.32;4.70;;;;;;;;;;5090838;28;20099;-58
2022/06/24 00:20:45;;;;;;;7.88;4.90;;;;;;;;;;5090328;28;20040;-57
2022/06/24 00:23:12;;;;;;;9.35;5.03;;;;;;;;;;5091289;28;20404;-59
2022/06/24 00:25:38;;;;;;;8.90;5.32;;;;;;;;;;5087435;28;20031;-57
2022/06/24 00:28:07;;;;;;;7.75;5.22;;;;;;;;;;5087461;28;20036;-58
2022/06/24 00:30:50;;;;;;;6.82;5.10;;;;;;;;;;5089056;28;20034;-60
2022/06/24 00:33:18;;;;;;;7.90;4.90;;;;;;;;;;5081735;28;20413;-58
2022/06/24 00:35:48;;;;;;;10.35;5.40;;;;;;;;;;5087493;28;20464;-59
2022/06/24 00:38:22;;;;;;;7.75;5.38;;;;;;;;;;5091698;28;20048;-58
2022/06/24 00:40:50;;;;;;;6.93;4.90;;;;;;;;;;5092215;28;20086;-59
2022/06/24 00:43:35;;;;;;;7.05;5.10;;;;;;;;;;5093453;28;20545;-59
2022/06/24 00:46:23;;;;;;;6.75;4.93;;;;;;;;;;5093080;28;20114;-59
2022/06/24 00:48:56;;;;;;;6.97;5.20;;;;;;;;;;5091766;28;20381;-58
2022/06/24 00:51:30;;;;;;;9.20;5.00;;;;;;;;;;5094393;28;20402;-58
2022/06/24 00:53:56;;;;;;;7.00;5.15;;;;;;;;;;5108230;28;20050;-59
2022/06/24 00:56:25;;;;;;;6.72;4.90;;;;;;;;;;5113585;28;20085;-58
2022/06/24 00:58:56;;;;;;;6.68;5.00;;;;;;;;;;5111187;28;20114;-59
2022/06/24 01:01:32;;;;;;;8.43;5.15;;;;;;;;;;5093798;28;20055;-60
2022/06/24 01:03:59;;;;;;;7.07;4.95;;;;;;;;;;5099222;28;20034;-58
2022/06/24 01:06:25;;;;;;;6.50;4.85;;;;;;;;;;5111760;28;20032;-58
2022/06/24 01:08:51;;;;;;;9.25;5.10;;;;;;;;;;5095892;28;20120;-58
2022/06/24 01:11:24;;;;;;;10.73;5.43;;;;;;;;;;5093165;28;20114;-57
2022/06/24 01:13:50;;;;;;;9.93;5.30;;;;;;;;;;5112325;28;20122;-58
2022/06/24 01:16:15;;;;;;;7.93;5.18;;;;;;;;;;5094454;28;20562;-58
2022/06/24 01:18:41;;;;;;;8.02;5.07;;;;;;;;;;5112312;28;20103;-59
2022/06/24 01:21:07;;;;;;;6.18;5.03;;;;;;;;;;5113964;28;20105;-59
2022/06/24 01:23:32;;;;;;;8.90;4.95;;;;;;;;;;5115106;28;20058;-59
2022/06/24 01:25:57;;;;;;;10.43;4.80;;;;;;;;;;5109861;28;20387;-59
2022/06/24 01:28:23;;;;;;;9.20;4.82;;;;;;;;;;5108444;28;20031;-58
2022/06/24 01:30:48;;;;;;;8.23;4.50;;;;;;;;;;5114463;28;20379;-58
2022/06/24 01:33:14;;;;;;;10.20;5.78;;;;;;;;;;5112201;28;20493;-64
2022/06/24 01:35:39;;;;;;;11.10;5.13;;;;;;;;;;5107099;28;20030;-64
2022/06/24 01:38:05;;;;;;;13.75;5.47;;;;;;;;;;5094761;28;20024;-64
2022/06/24 01:40:30;;;;;;;10.60;5.70;;;;;;;;;;5108768;28;20032;-64
2022/06/24 01:42:55;;;;;;;9.55;5.82;;;;;;;;;;5114369;28;20098;-64
2022/06/24 01:45:21;;;;;;;13.77;6.13;;;;;;;;;;5113216;28;20100;-64
2022/06/24 01:47:46;;;;;;;12.55;5.78;;;;;;;;;;5112080;28;20529;-64
2022/06/24 01:50:12;;;;;;;14.05;6.25;;;;;;;;;;5112330;28;20038;-64
2022/06/24 01:52:37;;;;;;;14.68;6.68;;;;;;;;;;5113074;28;20533;-63
2022/06/24 01:55:04;;;;;;;14.52;7.22;;;;;;;;;;5108351;28;20947;-64
2022/06/24 01:57:29;;;;;;;14.20;7.60;;;;;;;;;;5113114;28;20518;-64
2022/06/24 01:59:58;;;;;;;14.85;7.90;;;;;;;;;;5111207;28;20047;-64
2022/06/24 02:02:23;;;;;;;21.88;8.25;;;;;;;;;;5112367;28;20495;-64
2022/06/24 02:04:49;;;;;;;17.63;8.07;;;;;;;;;;5103827;28;20541;-64
2022/06/24 02:07:14;;;;;;;18.23;9.07;;;;;;;;;;5110357;28;20073;-64
2022/06/24 02:15:19;;;;;;;19.25;10.75;;;;;;;;;;5107741;28;20050;-63
2022/06/24 02:17:45;;;;;;;19.23;11.00;;;;;;;;;;5105881;28;20032;-63
2022/06/24 02:20:10;;;;;;;17.15;12.05;;;;;;;;;;5114042;28;20056;-64
2022/06/24 02:22:36;;;;;;;17.85;12.20;;;;;;;;;;5102190;28;20030;-63
2022/06/24 02:25:01;;;;;;;22.65;12.70;;;;;;;;;;5110929;28;20036;-64
2022/06/24 02:27:27;;;;;;;21.42;13.70;;;;;;;;;;5111309;28;20375;-63
2022/06/24 02:29:52;;;;;;;20.27;13.57;;;;;;;;;;5112076;28;20020;-64
2022/06/24 02:32:17;;;;;;;24.67;15.18;;;;;;;;;;5112150;28;20391;-64
2022/06/24 02:34:43;;;;;;;21.35;15.68;;;;;;;;;;5108023;28;20035;-64
2022/06/24 02:37:08;;;;;;;21.80;15.65;;;;;;;;;;5108085;28;20031;-64
2022/06/24 02:39:34;;;;;;;24.65;15.90;;;;;;;;;;5110428;28;20110;-63
2022/06/24 02:41:59;;;;;;;21.60;16.67;;;;;;;;;;5112364;28;20590;-63
2022/06/24 02:44:24;;;;;;;22.58;15.40;;;;;;;;;;5112102;28;20034;-63
2022/06/24 02:46:50;;;;;;;25.38;14.90;;;;;;;;;;5112781;28;20093;-63
2022/06/24 02:49:15;;;;;;;24.33;15.25;;;;;;;;;;5113158;28;20470;-63
2022/06/24 02:51:40;;;;;;;24.15;15.05;;;;;;;;;;5112996;28;20028;-62
2022/06/24 02:54:06;;;;;;;21.33;14.75;;;;;;;;;;5111204;28;20154;-64
2022/06/24 02:56:31;;;;;;;23.00;14.40;;;;;;;;;;5113448;28;20031;-64
2022/06/24 02:58:56;;;;;;;24.40;15.38;;;;;;;;;;5093053;28;20156;-64
2022/06/24 03:01:22;;;;;;;21.30;14.60;;;;;;;;;;5104826;28;20036;-63
2022/06/24 03:03:47;;;;;;;21.42;13.90;;;;;;;;;;5110339;28;20379;-63
2022/06/24 03:06:13;;;;;;;20.42;13.80;;;;;;;;;;5095717;28;20046;-64
2022/06/24 03:08:39;;;;;;;21.63;13.93;;;;;;;;;;5097206;28;20483;-63
2022/06/24 03:11:05;;;;;;;26.27;14.10;;;;;;;;;;5092099;28;20101;-63
2022/06/24 03:13:30;;;;;;;21.92;13.35;;;;;;;;;;5110282;28;20027;-63
2022/06/24 03:15:56;;;;;;;19.35;13.02;;;;;;;;;;5112445;28;20032;-65
2022/06/24 03:18:23;;;;;;;20.30;11.45;;;;;;;;;;5111226;28;20027;-65
2022/06/24 03:20:49;;;;;;;18.80;12.00;;;;;;;;;;5112345;28;20070;-64
2022/06/24 03:23:14;;;;;;;16.25;11.85;;;;;;;;;;5112162;28;20051;-64
2022/06/24 03:25:40;;;;;;;17.95;12.00;;;;;;;;;;5110822;28;20032;-63
2022/06/24 03:28:06;;;;;;;18.40;13.68;;;;;;;;;;5109274;28;20411;-64
2022/06/24 03:30:34;;;;;;;19.27;13.48;;;;;;;;;;5113159;28;20076;-64
2022/06/24 03:33:00;;;;;;;18.42;12.77;;;;;;;;;;5111257;28;20172;-64
2022/06/24 03:35:26;;;;;;;17.02;12.70;;;;;;;;;;5101903;28;20032;-64
2022/06/24 03:37:52;;;;;;;17.60;13.80;;;;;;;;;;5104307;28;20491;-63
2022/06/24 03:40:17;;;;;;;23.85;13.15;;;;;;;;;;5109691;28;20031;-63
2022/06/24 03:42:43;;;;;;;20.38;14.63;;;;;;;;;;5111525;28;20433;-62
2022/06/24 03:45:09;;;;;;;21.85;14.32;;;;;;;;;;5111003;28;20119;-63
2022/06/24 03:47:34;;;;;;;21.70;14.00;;;;;;;;;;5111641;28;20031;-64
2022/06/24 03:50:00;;;;;;;18.17;13.98;;;;;;;;;;5111886;28;20023;-64
2022/06/24 03:52:25;;;;;;;21.30;14.52;;;;;;;;;;5110767;28;20052;-65
2022/06/24 03:54:51;;;;;;;23.42;14.07;;;;;;;;;;5093459;28;20033;-65
2022/06/24 03:57:16;;;;;;;22.65;13.30;;;;;;;;;;5110079;28;20031;-64
2022/06/24 03:59:42;;;;;;;22.73;14.07;;;;;;;;;;5111956;28;20351;-64
2022/06/24 04:02:07;;;;;;;22.05;14.77;;;;;;;;;;5107843;28;20027;-65
2022/06/24 04:04:32;;;;;;;23.67;15.27;;;;;;;;;;5108926;28;20050;-65
2022/06/24 04:06:58;;;;;;;22.95;14.85;;;;;;;;;;5109526;28;20039;-66
2022/06/24 04:09:23;;;;;;;23.40;16.65;;;;;;;;;;5110690;28;20027;-66
2022/06/24 04:11:49;;;;;;;29.10;17.83;;;;;;;;;;5092467;28;20058;-68
2022/06/24 04:15:13;;;;;;;28.88;17.95;;;;;;;;;;5110494;28;20438;-65
2022/06/24 04:17:02;;;;;;;24.23;17.77;;;;;;;;;;5110474;28;20031;-66
2022/06/24 04:19:27;;;;;;;24.00;17.48;;;;;;;;;;5110031;28;20031;-67
2022/06/24 04:21:52;;;;;;;28.05;18.65;;;;;;;;;;5096699;28;20077;-67
2022/06/24 04:24:18;;;;;;;27.92;18.38;;;;;;;;;;5104808;28;20443;-67
2022/06/24 04:26:43;;;;;;;28.75;19.02;;;;;;;;;;5112157;28;20043;-64
2022/06/24 04:29:09;;;;;;;34.45;20.20;;;;;;;;;;5110622;28;20028;-68
2022/06/24 04:31:34;;;;;;;28.70;19.23;;;;;;;;;;5110494;28;20379;-68
2022/06/24 04:33:59;;;;;;;26.60;18.83;;;;;;;;;;5106531;28;20027;-67
2022/06/24 04:36:25;;;;;;;29.45;19.55;;;;;;;;;;5100290;28;20456;-69
2022/06/24 04:38:50;;;;;;;28.83;20.15;;;;;;;;;;5101858;28;20084;-69
2022/06/24 04:41:16;;;;;;;32.17;21.73;;;;;;;;;;5112024;28;20467;-70
2022/06/24 04:43:42;;;;;;;27.67;20.35;;;;;;;;;;5110955;28;20436;-71
2022/06/24 04:46:08;;;;;;;30.95;20.50;;;;;;;;;;5109595;28;20622;-70
2022/06/24 04:48:34;;;;;;;34.22;20.98;;;;;;;;;;5109901;28;20077;-70
2022/06/24 04:51:00;;;;;;;31.10;20.63;;;;;;;;;;5110996;28;20111;-70
2022/06/24 04:53:25;;;;;;;31.90;21.15;;;;;;;;;;5110518;28;20054;-70
2022/06/24 04:55:51;;;;;;;30.00;20.42;;;;;;;;;;5107242;28;20024;-63
2022/06/24 04:58:16;;;;;;;28.48;20.55;;;;;;;;;;5110402;28;20032;-60
2022/06/24 05:00:41;;;;;;;34.42;20.73;;;;;;;;;;5102341;28;20436;-60
2022/06/24 05:03:07;;;;;;;37.67;21.08;;;;;;;;;;5107217;28;20028;-64
2022/06/24 05:05:32;;;;;;;36.38;23.13;;;;;;;;;;5104310;28;20361;-61
2022/06/24 05:07:58;;;;;;;34.78;22.17;;;;;;;;;;5104183;28;20110;-62
2022/06/24 05:10:23;;;;;;;35.67;21.77;;;;;;;;;;5112031;28;20082;-61
2022/06/24 05:12:49;;;;;;;32.85;21.45;;;;;;;;;;5093088;28;20028;-61
2022/06/24 05:15:14;;;;;;;30.83;18.92;;;;;;;;;;5111381;28;20096;-60
2022/06/24 05:17:39;;;;;;;21.27;14.35;;;;;;;;;;5111460;28;20391;-61
2022/06/24 05:20:05;;;;;;;20.90;13.50;;;;;;;;;;5110612;28;20510;-61
2022/06/24 05:22:31;;;;;;;27.23;13.88;;;;;;;;;;5114973;28;20027;-60
2022/06/24 05:24:56;;;;;;;22.02;13.57;;;;;;;;;;5113942;28;20047;-63
2022/06/24 05:27:21;;;;;;;19.52;12.38;;;;;;;;;;5114056;28;20530;-61
2022/06/24 05:29:47;;;;;;;17.15;11.88;;;;;;;;;;5114647;28;20376;-60
2022/06/24 05:32:12;;;;;;;17.23;12.02;;;;;;;;;;5113942;28;20035;-61
2022/06/24 05:34:38;;;;;;;21.08;13.35;;;;;;;;;;5115015;28;20111;-61
2022/06/24 05:37:03;;;;;;;21.88;13.95;;;;;;;;;;5112849;28;20039;-61
2022/06/24 05:39:29;;;;;;;21.95;14.48;;;;;;;;;;5109503;28;20027;-61
2022/06/24 05:41:54;;;;;;;23.38;15.50;;;;;;;;;;5111205;28;20032;-61
2022/06/24 05:44:19;;;;;;;21.63;15.18;;;;;;;;;;5114655;28;20537;-62
2022/06/24 05:46:46;;;;;;;21.85;14.88;;;;;;;;;;5095896;28;20035;-61
2022/06/24 05:49:11;;;;;;;23.05;16.15;;;;;;;;;;5101002;28;20042;-61
2022/06/24 05:51:37;;;;;;;22.35;17.08;;;;;;;;;;5111656;28;20028;-61
2022/06/24 05:56:47;;;;;;;23.58;16.58;;;;;;;;;;5110623;28;20039;-61
2022/06/24 05:59:13;;;;;;;26.27;17.98;;;;;;;;;;5111902;28;20028;-61
2022/06/24 06:01:39;;;;;;;24.90;18.42;;;;;;;;;;5112928;28;20038;-62
2022/06/24 06:04:04;;;;;;;25.17;18.65;;;;;;;;;;5094311;28;20682;-62
2022/06/24 06:06:30;;;;;;;23.35;18.33;;;;;;;;;;5106705;28;20097;-61
2022/06/24 06:08:57;;;;;;;27.55;18.77;;;;;;;;;;5103480;28;20036;-62
2022/06/24 06:11:24;;;;;;;24.38;18.75;;;;;;;;;;5114103;28;20486;-62
2022/06/24 06:13:54;;;;;;;24.48;18.42;;;;;;;;;;5105331;28;20490;-61
2022/06/24 06:16:20;;;;;;;28.48;19.02;;;;;;;;;;5108243;28;20026;-61
2022/06/24 06:18:45;;;;;;;29.00;19.42;;;;;;;;;;5113843;28;20073;-62
2022/06/24 06:21:12;;;;;;;29.55;19.90;;;;;;;;;;5109538;28;20804;-66
2022/06/24 06:23:39;;;;;;;24.05;18.40;;;;;;;;;;5114370;28;20108;-62
2022/06/24 06:26:06;;;;;;;26.90;19.30;;;;;;;;;;5112872;28;20503;-62
2022/06/24 06:28:32;;;;;;;25.80;19.20;;;;;;;;;;5094977;28;20402;-62
2022/06/24 06:30:58;;;;;;;28.85;19.58;;;;;;;;;;5111001;28;20032;-63
2022/06/24 06:33:23;;;;;;;28.02;20.13;;;;;;;;;;5105016;28;20028;-62
2022/06/24 06:35:49;;;;;;;30.35;21.25;;;;;;;;;;5105983;28;20510;-63
2022/06/24 06:38:17;;;;;;;28.65;20.80;;;;;;;;;;5110528;28;20031;-63
2022/06/24 06:40:43;;;;;;;26.90;18.13;;;;;;;;;;5111322;28;20042;-63
2022/06/24 06:43:09;;;;;;;22.52;17.58;;;;;;;;;;5113133;28;20239;-63
2022/06/24 06:45:38;;;;;;;23.55;17.00;;;;;;;;;;5110502;28;20091;-63
2022/06/24 06:48:04;;;;;;;23.52;17.17;;;;;;;;;;5101135;28;20379;-64
2022/06/24 06:50:30;;;;;;;23.27;16.90;;;;;;;;;;5109155;28;20035;-64
2022/06/24 06:52:55;;;;;;;20.27;15.30;;;;;;;;;;5094926;28;20048;-64
2022/06/24 06:55:21;;;;;;;17.58;13.15;;;;;;;;;;5111261;28;20085;-63
2022/06/24 06:57:47;;;;;;;16.38;11.68;;;;;;;;;;5112633;28;20152;-64
2022/06/24 07:00:13;;;;;;;13.95;11.30;;;;;;;;;;5109963;28;20850;-64
2022/06/24 07:02:39;;;;;;;13.20;10.75;;;;;;;;;;5095198;28;20031;-63
2022/06/24 07:05:05;;;;;;;12.07;8.50;;;;;;;;;;5104027;28;20043;-64
2022/06/24 07:07:31;;;;;;;11.48;7.38;;;;;;;;;;5099974;28;20035;-63
2022/06/24 07:09:57;;;;;;;9.90;6.90;;;;;;;;;;5105847;28;20036;-64
2022/06/24 07:12:22;;;;;;;11.05;6.72;;;;;;;;;;5109197;28;20030;-62
2022/06/24 07:14:48;;;;;;;10.20;7.07;;;;;;;;;;5112072;28;20074;-63
2022/06/24 07:17:14;;;;;;;12.98;6.10;;;;;;;;;;5093654;28;20487;-63
2022/06/24 07:19:39;;;;;;;10.10;5.80;;;;;;;;;;5112032;28;20090;-63
2022/06/24 07:22:05;;;;;;;7.88;4.95;;;;;;;;;;5112000;28;20050;-63
2022/06/24 07:24:30;;;;;;;6.43;4.50;;;;;;;;;;5102728;28;20380;-63
2022/06/24 07:26:55;;;;;;;7.70;4.63;;;;;;;;;;5110865;28;20034;-65
2022/06/24 07:29:21;;;;;;;11.43;4.60;;;;;;;;;;5113000;28;20027;-63
2022/06/24 07:31:47;;;;;;;7.72;4.18;;;;;;;;;;5111738;28;20400;-63
2022/06/24 07:34:17;;;;;;;8.40;4.13;;;;;;;;;;5106628;28;20047;-63
2022/06/24 07:36:43;;;;;;;9.05;4.00;;;;;;;;;;5109436;28;20432;-62
2022/06/24 07:39:09;;;;;;;9.50;4.13;;;;;;;;;;5109630;28;20035;-62
2022/06/24 07:41:34;;;;;;;7.20;3.85;;;;;;;;;;5093384;28;20403;-63
2022/06/24 07:44:00;;;;;;;6.13;3.22;;;;;;;;;;5089472;28;20032;-64
2022/06/24 07:46:26;;;;;;;4.95;3.35;;;;;;;;;;5095234;28;20373;-63
2022/06/24 07:48:52;;;;;;;7.30;3.30;;;;;;;;;;5111296;28;20055;-64
2022/06/24 07:51:19;;;;;;;8.23;3.30;;;;;;;;;;5110446;28;21490;-65
2022/06/24 07:53:46;;;;;;;7.22;3.50;;;;;;;;;;5112115;28;20161;-65
2022/06/24 07:58:56;;;;;;;10.52;3.47;;;;;;;;;;5094369;28;20124;-63
2022/06/24 08:01:21;;;;;;;8.00;3.58;;;;;;;;;;5107255;28;20110;-63
2022/06/24 08:03:47;;;;;;;14.73;10.20;;;;;;;;;;5111138;28;20116;-65
2022/06/24 08:06:12;;;;;;;14.07;11.98;;;;;;;;;;5110318;28;20042;-63
2022/06/24 08:08:39;;;;;;;11.38;9.50;;;;;;;;;;5106278;28;20019;-62
2022/06/24 08:11:04;;;;;;;11.80;9.07;;;;;;;;;;5107620;28;20059;-61
2022/06/24 08:13:32;;;;;;;15.02;8.05;;;;;;;;;;5110095;28;20032;-63
2022/06/24 08:15:57;;;;;;;8.15;6.15;;;;;;;;;;5110172;28;20031;-62
2022/06/24 08:18:24;;;;;;;7.88;6.30;;;;;;;;;;5111263;28;20042;-63
2022/06/24 08:20:49;;;;;;;9.73;5.65;;;;;;;;;;5108545;28;20039;-63
2022/06/24 08:23:15;;;;;;;6.55;5.38;;;;;;;;;;5110127;28;20042;-63
2022/06/24 08:25:40;;;;;;;8.70;4.97;;;;;;;;;;5110746;28;20059;-63
2022/06/24 08:28:06;;;;;;;8.65;5.10;;;;;;;;;;5110081;28;20028;-64
2022/06/24 08:30:31;;;;;;;6.68;4.30;;;;;;;;;;5104960;28;20036;-62
2022/06/24 08:32:57;;;;;;;6.63;4.53;;;;;;;;;;5110934;28;20032;-63
2022/06/24 08:35:23;;;;;;;6.18;4.75;;;;;;;;;;5109453;28;20027;-64
2022/06/24 08:37:48;;;;;;;5.88;4.10;;;;;;;;;;5111882;28;20026;-62
2022/06/24 08:40:15;;;;;;;5.63;4.15;;;;;;;;;;5109511;28;20055;-62
2022/06/24 08:42:44;;;;;;;9.68;7.55;;;;;;;;;;5111589;28;20483;-62
2022/06/24 08:45:12;;;;;;;13.50;10.20;;;;;;;;;;5108954;28;20028;-63
2022/06/24 08:47:38;;;;;;;11.98;10.68;;;;;;;;;;5108282;28;20024;-62
2022/06/24 08:50:07;;;;;;;12.23;10.98;;;;;;;;;;5110969;28;20032;-62
2022/06/24 08:52:32;;;;;;;6.85;5.60;;;;;;;;;;5110995;28;20177;-62
2022/06/24 08:54:59;;;;;;;6.13;5.20;;;;;;;;;;5108792;28;20115;-63
2022/06/24 08:57:25;;;;;;;5.80;3.60;;;;;;;;;;5112774;28;20389;-63
2022/06/24 08:59:51;;;;;;;4.88;3.05;;;;;;;;;;5114572;28;20149;-61
2022/06/24 09:02:18;;;;;;;4.50;2.90;;;;;;;;;;5114407;28;20028;-62
2022/06/24 09:04:45;;;;;;;4.38;3.03;;;;;;;;;;5113739;28;20058;-61
2022/06/24 09:07:30;;;;;;;4.07;2.33;;;;;;;;;;5083155;28;20135;-61
2022/06/24 09:09:58;;;;;;;2.92;2.20;;;;;;;;;;5102929;28;20067;-62
2022/06/24 09:12:23;;;;;;;2.50;2.13;;;;;;;;;;5112920;28;20104;-62
2022/06/24 09:14:48;;;;;;;5.10;2.47;;;;;;;;;;5112819;28;20066;-61
2022/06/24 09:17:14;;;;;;;6.00;3.22;;;;;;;;;;5114492;28;20019;-62
2022/06/24 09:19:40;;;;;;;9.50;5.97;;;;;;;;;;5112251;28;20467;-62
2022/06/24 09:22:08;;;;;;;11.27;8.75;;;;;;;;;;5114572;28;20031;-63
2022/06/24 09:24:51;;;;;;;10.18;8.40;;;;;;;;;;5112656;28;20026;-61
2022/06/24 09:27:16;;;;;;;7.43;6.63;;;;;;;;;;5112406;28;20058;-62
2022/06/24 09:29:51;;;;;;;8.30;5.43;;;;;;;;;;5095942;28;20446;-62
2022/06/24 09:32:16;;;;;;;6.82;5.40;;;;;;;;;;5113544;28;20475;-62
2022/06/24 09:35:08;;;;;;;6.57;5.80;;;;;;;;;;5108393;28;20108;-62
2022/06/24 09:37:37;;;;;;;7.00;4.70;;;;;;;;;;5106560;28;20451;-61
2022/06/24 09:40:14;;;;;;;6.03;3.25;;;;;;;;;;5104922;28;20069;-62
2022/06/24 09:42:39;;;;;;;4.57;3.30;;;;;;;;;;5107836;28;20027;-61
2022/06/24 09:45:06;;;;;;;9.48;5.32;;;;;;;;;;5111837;28;20039;-61
2022/06/24 09:47:36;;;;;;;8.73;4.60;;;;;;;;;;5114368;28;20051;-62
2022/06/24 09:50:02;;;;;;;7.00;4.55;;;;;;;;;;5112691;28;20023;-62
2022/06/24 09:52:29;;;;;;;6.38;3.80;;;;;;;;;;5113424;28;20096;-62
2022/06/24 09:54:54;;;;;;;7.57;4.05;;;;;;;;;;5113816;28;20136;-68
2022/06/24 09:57:20;;;;;;;8.20;4.40;;;;;;;;;;5081045;28;20488;-63
2022/06/24 10:02:32;;;;;;;6.75;4.40;;;;;;;;;;5114513;28;20035;-66
2022/06/24 10:04:59;;;;;;;8.43;4.82;;;;;;;;;;5109574;28;20084;-60
2022/06/24 10:07:29;;;;;;;8.52;5.53;;;;;;;;;;5082630;28;20040;-65
2022/06/24 10:09:56;;;;;;;9.23;5.20;;;;;;;;;;5106919;28;20050;-64
2022/06/24 10:12:21;;;;;;;9.07;5.72;;;;;;;;;;5102574;28;20031;-65
2022/06/24 10:14:48;;;;;;;8.68;5.72;;;;;;;;;;5111242;28;20395;-64
2022/06/24 10:17:15;;;;;;;7.45;5.13;;;;;;;;;;5110461;28;20486;-65
2022/06/24 10:19:43;;;;;;;9.50;5.40;;;;;;;;;;5110740;28;20486;-63
2022/06/24 10:22:08;;;;;;;9.23;5.40;;;;;;;;;;5098805;28;20032;-65
2022/06/24 10:24:43;;;;;;;9.18;5.07;;;;;;;;;;5106552;28;20115;-64
2022/06/24 10:27:08;;;;;;;7.80;5.03;;;;;;;;;;5095188;28;20387;-64
2022/06/24 10:29:35;;;;;;;7.80;5.20;;;;;;;;;;5109501;28;20084;-65
2022/06/24 10:32:03;;;;;;;9.10;5.60;;;;;;;;;;5103071;28;20027;-64
2022/06/24 10:34:37;;;;;;;10.48;5.70;;;;;;;;;;5111376;28;20106;-64
2022/06/24 10:37:12;;;;;;;8.25;5.72;;;;;;;;;;5112287;28;20410;-65
2022/06/24 10:39:45;;;;;;;10.95;5.72;;;;;;;;;;5111610;28;20482;-61
2022/06/24 10:42:13;;;;;;;8.95;5.93;;;;;;;;;;5110949;28;20379;-63
2022/06/24 10:45:10;;;;;;;9.65;6.03;;;;;;;;;;5111805;28;20030;-62
2022/06/24 10:47:35;;;;;;;10.07;6.28;;;;;;;;;;5112441;28;20079;-63
2022/06/24 10:50:02;;;;;;;9.90;6.45;;;;;;;;;;5105223;28;20086;-62
2022/06/24 10:52:47;;;;;;;8.63;5.78;;;;;;;;;;5113443;28;20051;-63
2022/06/24 10:55:16;;;;;;;9.75;6.00;;;;;;;;;;5112314;28;20043;-63
2022/06/24 10:57:48;;;;;;;10.38;7.00;;;;;;;;;;5112441;28;20027;-63
2022/06/24 11:00:24;;;;;;;10.63;6.72;;;;;;;;;;5111452;28;20056;-64
2022/06/24 11:02:59;;;;;;;11.82;6.90;;;;;;;;;;5110120;28;20085;-64
2022/06/24 11:05:29;;;;;;;9.55;6.65;;;;;;;;;;5111879;28;20047;-65
2022/06/24 11:07:55;;;;;;;10.40;6.13;;;;;;;;;;5109049;28;20028;-63
2022/06/24 11:10:22;;;;;;;10.75;6.60;;;;;;;;;;5109578;28;20814;-64
2022/06/24 11:12:58;;;;;;;9.50;6.55;;;;;;;;;;5110999;28;20024;-64
2022/06/24 11:15:46;;;;;;;9.40;6.57;;;;;;;;;;5110287;28;20027;-64
2022/06/24 11:18:18;;;;;;;9.65;5.93;;;;;;;;;;5108511;28;20122;-64
2022/06/24 11:20:54;;;;;;;9.07;5.28;;;;;;;;;;5077799;28;20039;-64
2022/06/24 11:23:23;;;;;;;8.55;6.13;;;;;;;;;;5091767;28;20645;-63
2022/06/24 11:26:00;;;;;;;9.20;6.65;;;;;;;;;;5108106;28;20106;-65
2022/06/24 11:28:39;;;;;;;10.48;7.18;;;;;;;;;;5093656;28;20478;-63
2022/06/24 11:31:21;;;;;;;11.63;8.73;;;;;;;;;;5108887;28;20044;-63
2022/06/24 11:34:07;;;;;;;10.43;8.90;;;;;;;;;;5109810;28;20480;-64
2022/06/24 11:36:34;;;;;;;13.15;10.00;;;;;;;;;;5108513;28;20040;-64
2022/06/24 11:39:02;;;;;;;13.30;9.88;;;;;;;;;;5111659;28;20046;-65
2022/06/24 11:41:36;;;;;;;12.23;10.25;;;;;;;;;;5111338;28;20038;-65
2022/06/24 11:44:02;;;;;;;12.90;11.20;;;;;;;;;;5093210;28;20471;-65
2022/06/24 11:46:27;;;;;;;9.43;7.65;;;;;;;;;;5100336;28;20036;-64
2022/06/24 11:49:13;;;;;;;10.55;7.80;;;;;;;;;;5082153;28;20027;-64
2022/06/24 11:51:41;;;;;;;13.13;10.30;;;;;;;;;;5111548;28;20063;-64
2022/06/24 11:54:08;;;;;;;10.02;8.98;;;;;;;;;;5102117;28;20051;-64
2022/06/24 11:56:35;;;;;;;11.20;9.23;;;;;;;;;;5085819;28;20463;-63
2022/06/24 11:59:04;;;;;;;10.20;8.88;;;;;;;;;;5109326;28;20051;-64
2022/06/24 12:01:31;;;;;;;10.75;9.02;;;;;;;;;;5109033;28;20142;-64
2022/06/24 12:03:59;;;;;;;8.55;7.38;;;;;;;;;;5111336;28;20070;-63
2022/06/24 12:06:25;;;;;;;8.88;7.97;;;;;;;;;;5099442;28;20042;-64
2022/06/24 12:08:51;;;;;;;7.65;6.53;;;;;;;;;;5105632;28;20119;-64
2022/06/24 12:11:19;;;;;;;6.55;5.22;;;;;;;;;;5102457;28;20488;-66
2022/06/24 12:13:58;;;;;;;9.10;5.20;;;;;;;;;;5101365;28;20038;-66
2022/06/24 12:16:24;;;;;;;5.78;4.57;;;;;;;;;;5107667;28;20114;-64
2022/06/24 12:18:50;;;;;;;6.15;4.55;;;;;;;;;;5112121;28;20039;-66
2022/06/24 12:21:27;;;;;;;5.82;4.85;;;;;;;;;;5110500;28;20024;-66
2022/06/24 12:23:53;;;;;;;6.53;5.70;;;;;;;;;;5111593;28;20110;-65
2022/06/24 12:26:25;;;;;;;7.03;6.28;;;;;;;;;;5108618;28;20594;-66
2022/06/24 12:29:03;;;;;;;7.07;6.20;;;;;;;;;;5110956;28;20452;-66
2022/06/24 12:31:29;;;;;;;6.68;5.97;;;;;;;;;;5111119;28;20102;-65
2022/06/24 12:33:56;;;;;;;7.10;5.70;;;;;;;;;;5102662;28;20038;-65
2022/06/24 12:36:34;;;;;;;6.85;5.55;;;;;;;;;;5103568;28;20035;-65
2022/06/24 12:39:06;;;;;;;6.93;5.90;;;;;;;;;;5107835;28;20036;-65
2022/06/24 12:41:47;;;;;;;6.78;5.80;;;;;;;;;;5105882;28;20065;-66
2022/06/24 12:44:14;;;;;;;7.25;5.32;;;;;;;;;;5107747;28;20031;-64
2022/06/24 12:52:28;;;;;;;5.78;4.82;;;;;;;;;;5100718;28;20062;-65
2022/06/24 12:54:54;;;;;;;6.68;4.57;;;;;;;;;;5111695;28;20035;-65
2022/06/24 12:57:19;;;;;;;5.78;4.47;;;;;;;;;;5089739;28;20035;-65
2022/06/24 12:59:44;;;;;;;5.45;4.30;;;;;;;;;;5110492;28;20472;-64
2022/06/24 13:02:10;;;;;;;5.68;4.43;;;;;;;;;;5092907;28;20031;-64
2022/06/24 13:04:35;;;;;;;4.97;3.80;;;;;;;;;;5109643;28;20110;-64
2022/06/24 13:07:01;;;;;;;5.90;3.88;;;;;;;;;;5111014;28;20035;-64
2022/06/24 13:09:26;;;;;;;6.78;4.60;;;;;;;;;;5109873;28;20162;-64
2022/06/24 13:11:52;;;;;;;7.28;4.80;;;;;;;;;;5110128;28;20376;-65
2022/06/24 13:14:17;;;;;;;5.80;4.70;;;;;;;;;;5109091;28;20044;-64
2022/06/24 13:16:43;;;;;;;7.85;5.30;;;;;;;;;;5109977;28;20080;-64
2022/06/24 13:19:08;;;;;;;5.25;4.55;;;;;;;;;;5092616;28;20452;-64
2022/06/24 13:21:33;;;;;;;8.02;5.28;;;;;;;;;;5098742;28;20525;-63
2022/06/24 13:23:59;;;;;;;6.25;5.35;;;;;;;;;;5105057;28;20036;-64
2022/06/24 13:26:24;;;;;;;5.65;4.97;;;;;;;;;;5107249;28;20043;-62
2022/06/24 13:28:50;;;;;;;4.85;4.30;;;;;;;;;;5107646;28;20035;-63
2022/06/24 13:31:15;;;;;;;6.85;5.10;;;;;;;;;;5110497;28;20532;-63
2022/06/24 13:33:40;;;;;;;7.00;5.07;;;;;;;;;;5108515;28;20063;-62
2022/06/24 13:36:06;;;;;;;6.93;4.70;;;;;;;;;;5109757;28;20118;-63
2022/06/24 13:38:31;;;;;;;5.78;4.72;;;;;;;;;;5106351;28;20092;-64
2022/06/24 13:40:57;;;;;;;8.05;5.70;;;;;;;;;;5110417;28;20460;-64
2022/06/24 13:43:22;;;;;;;6.35;5.38;;;;;;;;;;5113058;28;20490;-63
2022/06/24 13:45:47;;;;;;;7.15;5.60;;;;;;;;;;5113376;28;20036;-63
2022/06/24 13:48:13;;;;;;;7.90;5.72;;;;;;;;;;5113421;28;20472;-62
2022/06/24 13:50:39;;;;;;;7.10;6.22;;;;;;;;;;5114338;28;20119;-62
2022/06/24 13:53:04;;;;;;;10.52;6.20;;;;;;;;;;5114418;28;20080;-62
2022/06/24 13:55:31;;;;;;;9.82;6.20;;;;;;;;;;5112868;28;20446;-63
2022/06/24 13:57:56;;;;;;;7.15;6.20;;;;;;;;;;5112713;28;20491;-62
2022/06/24 14:00:22;;;;;;;10.77;6.85;;;;;;;;;;5093091;28;20059;-66
2022/06/24 14:02:47;;;;;;;13.27;7.18;;;;;;;;;;5115155;28;20031;-65
2022/06/24 14:05:12;;;;;;;9.05;7.50;;;;;;;;;;5110226;28;20028;-65
2022/06/24 14:07:38;;;;;;;10.88;8.63;;;;;;;;;;5111366;28;20483;-66
2022/06/24 14:10:04;;;;;;;14.68;10.43;;;;;;;;;;5113932;28;20028;-66
2022/06/24 14:12:30;;;;;;;12.80;11.50;;;;;;;;;;5114700;28;20039;-68
2022/06/24 14:14:55;;;;;;;14.50;12.57;;;;;;;;;;5114733;28;20027;-67
2022/06/24 14:17:21;;;;;;;18.02;13.35;;;;;;;;;;5113607;28;20028;-67
2022/06/24 14:19:47;;;;;;;19.80;16.38;;;;;;;;;;5114796;28;20032;-69
2022/06/24 14:22:12;;;;;;;27.00;21.13;;;;;;;;;;5112529;28;20440;-69
2022/06/24 14:24:37;;;;;;;22.98;18.85;;;;;;;;;;5114723;28;20031;-71
2022/06/24 14:27:08;;;;;;;24.52;20.92;;;;;;;;;;5114268;28;20057;-70
2022/06/24 14:29:34;;;;;;;26.52;22.45;;;;;;;;;;5114645;28;20024;-70
2022/06/24 14:32:00;;;;;;;23.67;20.95;;;;;;;;;;5114322;28;20036;-70
2022/06/24 14:34:25;;;;;;;33.70;24.00;;;;;;;;;;5110421;28;20046;-64
2022/06/24 14:36:51;;;;;;;22.15;19.80;;;;;;;;;;5103589;28;20380;-70
2022/06/24 14:42:03;;;;;;;32.38;26.90;;;;;;;;;;5107149;28;20458;-70
2022/06/24 14:44:32;;;;;;;24.08;21.48;;;;;;;;;;5113137;28;20036;-72
2022/06/24 14:47:01;;;;;;;20.95;18.65;;;;;;;;;;5113718;28;20445;-72
2022/06/24 14:49:27;;;;;;;17.85;16.05;;;;;;;;;;5111599;28;20583;-72
2022/06/24 14:51:53;;;;;;;14.57;13.05;;;;;;;;;;5112524;28;20066;-71
2022/06/24 14:54:18;;;;;;;12.23;11.02;;;;;;;;;;5111707;28;20445;-71